Terminal Aerodrome Forecast
Issued by NWS

Home | Current Version | Previous Version | Text Only | Print | Product List | Glossary On
Versions: 1 2 3 4 5 6 7 8 9 10 11 12 13 14 15 16 17 18 19 20 21
470
FTUS42 KMLB 220547
TAFLEE
TAF
KLEE 220547Z 2206/2306 14008KT P6SM SCT060 OVC250
     FM221600 15008KT P6SM VCSH BKN025 OVC050
      TEMPO 2217/2221 3SM SHRA OVC010
     FM222100 10007KT 5SM -RA BR OVC015
      TEMPO 2221/2301 2SM SHRA OVC008
     FM230100 07005KT P6SM SCT020 OVC050
      TEMPO 2301/2304 5SM SHRA BKN020 OVC040
     FM230500 03005KT P6SM OVC025=

USA.gov is the U.S. government's official web portal to all federal, state and local government web resources and services.